sensor_id;sensor_type;location;lat;lon;timestamp;pressure;altitude;pressure_sealevel;temperature;humidity
80620;BME280;69979;53.682;-2.690;2023-12-28T00:00:26;98798.20;;;3.95;79.05
80620;BME280;69979;53.682;-2.690;2023-12-28T00:02:51;98810.13;;;3.90;78.10
80620;BME280;69979;53.682;-2.690;2023-12-28T00:05:17;98790.56;;;4.23;78.85
80620;BME280;69979;53.682;-2.690;2023-12-28T00:07:42;98789.20;;;4.30;77.96
80620;BME280;69979;53.682;-2.690;2023-12-28T00:10:08;98793.51;;;4.18;76.76
80620;BME280;69979;53.682;-2.690;2023-12-28T00:12:34;98801.32;;;4.60;75.80
80620;BME280;69979;53.682;-2.690;2023-12-28T00:14:59;98784.19;;;4.22;76.52
80620;BME280;69979;53.682;-2.690;2023-12-28T00:17:24;98792.34;;;4.76;76.35
80620;BME280;69979;53.682;-2.690;2023-12-28T00:19:50;98793.26;;;4.68;75.85
80620;BME280;69979;53.682;-2.690;2023-12-28T00:22:16;98794.39;;;4.38;76.86
80620;BME280;69979;53.682;-2.690;2023-12-28T00:24:41;98796.52;;;4.73;76.90
80620;BME280;69979;53.682;-2.690;2023-12-28T00:27:07;98795.10;;;4.82;75.24
80620;BME280;69979;53.682;-2.690;2023-12-28T00:29:33;98780.05;;;5.03;74.14
80620;BME280;69979;53.682;-2.690;2023-12-28T00:31:58;98779.90;;;4.63;73.73
80620;BME280;69979;53.682;-2.690;2023-12-28T00:34:24;98770.73;;;4.91;73.71
80620;BME280;69979;53.682;-2.690;2023-12-28T00:36:50;98768.39;;;4.57;76.27
80620;BME280;69979;53.682;-2.690;2023-12-28T00:39:15;98773.30;;;4.69;76.42
80620;BME280;69979;53.682;-2.690;2023-12-28T00:41:41;98765.70;;;4.69;75.51
80620;BME280;69979;53.682;-2.690;2023-12-28T00:44:06;98749.69;;;5.27;74.51
80620;BME280;69979;53.682;-2.690;2023-12-28T00:46:32;98768.03;;;4.50;74.59
80620;BME280;69979;53.682;-2.690;2023-12-28T00:48:57;98744.43;;;4.56;74.46
80620;BME280;69979;53.682;-2.690;2023-12-28T00:51:23;98746.13;;;4.62;75.33
80620;BME280;69979;53.682;-2.690;2023-12-28T00:53:48;98716.67;;;4.48;75.34
80620;BME280;69979;53.682;-2.690;2023-12-28T00:56:13;98726.03;;;4.93;74.82
80620;BME280;69979;53.682;-2.690;2023-12-28T00:58:39;98724.31;;;5.14;73.22
80620;BME280;69979;53.682;-2.690;2023-12-28T01:01:05;98713.92;;;4.99;75.39
80620;BME280;69979;53.682;-2.690;2023-12-28T01:03:30;98724.65;;;4.69;75.36
80620;BME280;69979;53.682;-2.690;2023-12-28T01:05:56;98725.76;;;4.72;76.18
80620;BME280;69979;53.682;-2.690;2023-12-28T01:08:21;98736.44;;;4.73;75.18
80620;BME280;69979;53.682;-2.690;2023-12-28T01:10:46;98755.42;;;5.36;73.67
80620;BME280;69979;53.682;-2.690;2023-12-28T01:13:12;98728.11;;;5.33;73.35
80620;BME280;69979;53.682;-2.690;2023-12-28T01:15:38;98726.32;;;5.16;73.65
80620;BME280;69979;53.682;-2.690;2023-12-28T01:18:03;98718.92;;;5.07;73.11
80620;BME280;69979;53.682;-2.690;2023-12-28T01:20:28;98718.96;;;5.11;73.33
80620;BME280;69979;53.682;-2.690;2023-12-28T01:22:54;98717.04;;;5.35;73.34
80620;BME280;69979;53.682;-2.690;2023-12-28T01:25:19;98703.41;;;4.65;75.36
80620;BME280;69979;53.682;-2.690;2023-12-28T01:27:45;98708.19;;;4.49;76.01
80620;BME280;69979;53.682;-2.690;2023-12-28T01:30:11;98699.05;;;4.92;75.26
80620;BME280;69979;53.682;-2.690;2023-12-28T01:32:36;98691.33;;;4.70;75.40
80620;BME280;69979;53.682;-2.690;2023-12-28T01:35:02;98699.59;;;4.89;74.00
80620;BME280;69979;53.682;-2.690;2023-12-28T01:37:27;98698.02;;;5.27;73.63
80620;BME280;69979;53.682;-2.690;2023-12-28T01:39:53;98703.56;;;4.63;74.25
80620;BME280;69979;53.682;-2.690;2023-12-28T01:42:18;98699.49;;;4.67;74.67
80620;BME280;69979;53.682;-2.690;2023-12-28T01:44:43;98687.18;;;4.89;74.67
80620;BME280;69979;53.682;-2.690;2023-12-28T01:47:09;98715.12;;;4.97;73.69
80620;BME280;69979;53.682;-2.690;2023-12-28T01:49:36;98682.69;;;5.16;74.13
80620;BME280;69979;53.682;-2.690;2023-12-28T01:52:01;98694.28;;;5.13;74.33
80620;BME280;69979;53.682;-2.690;2023-12-28T01:54:26;98699.45;;;4.96;75.06
80620;BME280;69979;53.682;-2.690;2023-12-28T01:56:51;98704.60;;;5.22;75.82
80620;BME280;69979;53.682;-2.690;2023-12-28T01:59:17;98693.89;;;4.74;75.51
80620;BME280;69979;53.682;-2.690;2023-12-28T02:01:42;98725.52;;;4.80;77.23
80620;BME280;69979;53.682;-2.690;2023-12-28T02:04:07;98729.81;;;5.05;77.33
80620;BME280;69979;53.682;-2.690;2023-12-28T02:06:33;98743.17;;;5.02;77.98
80620;BME280;69979;53.682;-2.690;2023-12-28T02:08:59;98770.03;;;5.11;78.00
80620;BME280;69979;53.682;-2.690;2023-12-28T02:11:24;98783.48;;;4.49;78.75
80620;BME280;69979;53.682;-2.690;2023-12-28T02:13:50;98816.98;;;4.44;80.30
80620;BME280;69979;53.682;-2.690;2023-12-28T02:16:20;98834.68;;;4.35;81.13
80620;BME280;69979;53.682;-2.690;2023-12-28T02:18:43;98835.32;;;4.48;80.64
80620;BME280;69979;53.682;-2.690;2023-12-28T02:21:07;98831.02;;;4.45;81.71
80620;BME280;69979;53.682;-2.690;2023-12-28T02:23:33;98845.29;;;4.77;81.17
80620;BME280;69979;53.682;-2.690;2023-12-28T02:25:57;98866.62;;;4.84;80.23
80620;BME280;69979;53.682;-2.690;2023-12-28T02:28:23;98851.32;;;4.84;80.55
80620;BME280;69979;53.682;-2.690;2023-12-28T02:30:48;98831.94;;;4.75;79.48
80620;BME280;69979;53.682;-2.690;2023-12-28T02:33:19;98847.57;;;4.93;78.75
80620;BME280;69979;53.682;-2.690;2023-12-28T02:35:43;98878.91;;;4.75;78.86
80620;BME280;69979;53.682;-2.690;2023-12-28T02:38:08;98859.22;;;5.05;78.49
80620;BME280;69979;53.682;-2.690;2023-12-28T02:40:32;98886.52;;;4.70;80.37
80620;BME280;69979;53.682;-2.690;2023-12-28T02:42:55;98892.30;;;4.73;80.51
80620;BME280;69979;53.682;-2.690;2023-12-28T02:45:21;98903.53;;;4.55;81.48
80620;BME280;69979;53.682;-2.690;2023-12-28T02:47:46;98923.91;;;4.58;82.87
80620;BME280;69979;53.682;-2.690;2023-12-28T02:50:12;98937.71;;;3.96;90.20
80620;BME280;69979;53.682;-2.690;2023-12-28T02:52:37;98959.34;;;3.12;93.21
80620;BME280;69979;53.682;-2.690;2023-12-28T02:55:04;98974.62;;;3.22;93.77
80620;BME280;69979;53.682;-2.690;2023-12-28T02:57:28;98968.12;;;3.08;92.62
80620;BME280;69979;53.682;-2.690;2023-12-28T02:59:54;98976.67;;;3.46;91.48
80620;BME280;69979;53.682;-2.690;2023-12-28T03:02:20;98975.98;;;3.32;90.56
80620;BME280;69979;53.682;-2.690;2023-12-28T03:04:45;99000.00;;;3.65;88.38
80620;BME280;69979;53.682;-2.690;2023-12-28T03:07:11;99011.91;;;3.49;88.03
80620;BME280;69979;53.682;-2.690;2023-12-28T03:09:37;99025.89;;;3.85;86.48
80620;BME280;69979;53.682;-2.690;2023-12-28T03:12:02;99032.83;;;3.85;86.20
80620;BME280;69979;53.682;-2.690;2023-12-28T03:14:28;99038.84;;;3.92;85.84
80620;BME280;69979;53.682;-2.690;2023-12-28T03:16:53;99052.01;;;4.22;84.19
80620;BME280;69979;53.682;-2.690;2023-12-28T03:19:19;99062.29;;;4.09;83.86
80620;BME280;69979;53.682;-2.690;2023-12-28T03:21:44;99080.51;;;3.99;83.70
80620;BME280;69979;53.682;-2.690;2023-12-28T03:24:10;99072.22;;;3.57;85.71
80620;BME280;69979;53.682;-2.690;2023-12-28T03:26:38;99086.76;;;3.32;85.69
80620;BME280;69979;53.682;-2.690;2023-12-28T03:29:02;99089.67;;;4.13;83.61
80620;BME280;69979;53.682;-2.690;2023-12-28T03:31:27;99096.49;;;3.63;84.95
80620;BME280;69979;53.682;-2.690;2023-12-28T03:33:52;99110.33;;;3.65;84.22
80620;BME280;69979;53.682;-2.690;2023-12-28T03:36:18;99110.78;;;3.72;84.24
80620;BME280;69979;53.682;-2.690;2023-12-28T03:38:44;99125.36;;;3.98;83.73
80620;BME280;69979;53.682;-2.690;2023-12-28T03:41:17;99122.09;;;3.66;85.16
80620;BME280;69979;53.682;-2.690;2023-12-28T03:43:35;99134.10;;;3.72;84.61
80620;BME280;69979;53.682;-2.690;2023-12-28T03:46:01;99137.95;;;4.58;81.63
80620;BME280;69979;53.682;-2.690;2023-12-28T03:48:26;99137.34;;;4.15;82.79
80620;BME280;69979;53.682;-2.690;2023-12-28T03:50:52;99137.09;;;4.01;83.98
80620;BME280;69979;53.682;-2.690;2023-12-28T03:53:18;99132.69;;;4.01;83.33
80620;BME280;69979;53.682;-2.690;2023-12-28T03:55:43;99138.62;;;3.96;83.82
80620;BME280;69979;53.682;-2.690;2023-12-28T03:58:09;99150.16;;;3.76;85.23
80620;BME280;69979;53.682;-2.690;2023-12-28T04:00:36;99158.61;;;4.56;82.88
80620;BME280;69979;53.682;-2.690;2023-12-28T04:02:59;99168.52;;;4.01;85.46
80620;BME280;69979;53.682;-2.690;2023-12-28T04:05:25;99160.00;;;3.63;90.23
80620;BME280;69979;53.682;-2.690;2023-12-28T04:07:50;99173.21;;;3.89;89.54
80620;BME280;69979;53.682;-2.690;2023-12-28T04:10:28;99174.37;;;3.66;91.07
80620;BME280;69979;53.682;-2.690;2023-12-28T04:12:42;99170.67;;;3.96;88.83
80620;BME280;69979;53.682;-2.690;2023-12-28T04:15:08;99158.57;;;3.95;88.38
80620;BME280;69979;53.682;-2.690;2023-12-28T04:17:33;99176.78;;;3.76;89.02
80620;BME280;69979;53.682;-2.690;2023-12-28T04:19:59;99181.01;;;5.11;85.28
80620;BME280;69979;53.682;-2.690;2023-12-28T04:22:25;99176.99;;;5.25;83.24
80620;BME280;69979;53.682;-2.690;2023-12-28T04:24:50;99190.53;;;4.77;85.22
80620;BME280;69979;53.682;-2.690;2023-12-28T04:27:16;99210.77;;;4.45;84.63
80620;BME280;69979;53.682;-2.690;2023-12-28T04:29:42;99208.05;;;4.25;85.75
80620;BME280;69979;53.682;-2.690;2023-12-28T04:32:07;99206.46;;;3.92;87.43
80620;BME280;69979;53.682;-2.690;2023-12-28T04:34:33;99202.83;;;3.91;86.75
80620;BME280;69979;53.682;-2.690;2023-12-28T04:36:58;99200.44;;;4.59;85.87
80620;BME280;69979;53.682;-2.690;2023-12-28T04:39:24;99209.47;;;3.88;87.19
80620;BME280;69979;53.682;-2.690;2023-12-28T04:41:50;99213.12;;;4.43;87.26
80620;BME280;69979;53.682;-2.690;2023-12-28T04:44:16;99213.03;;;3.74;88.72
80620;BME280;69979;53.682;-2.690;2023-12-28T04:46:41;99213.34;;;4.68;84.93
80620;BME280;69979;53.682;-2.690;2023-12-28T04:49:07;99214.08;;;4.25;86.58
80620;BME280;69979;53.682;-2.690;2023-12-28T04:51:33;99214.05;;;4.61;85.83
80620;BME280;69979;53.682;-2.690;2023-12-28T04:53:58;99217.82;;;4.45;85.09
80620;BME280;69979;53.682;-2.690;2023-12-28T04:56:24;99227.33;;;4.50;83.74
80620;BME280;69979;53.682;-2.690;2023-12-28T04:58:50;99221.84;;;4.72;81.72
80620;BME280;69979;53.682;-2.690;2023-12-28T05:01:15;99221.72;;;5.54;80.68
80620;BME280;69979;53.682;-2.690;2023-12-28T05:03:40;99225.14;;;4.31;81.99
80620;BME280;69979;53.682;-2.690;2023-12-28T05:06:06;99219.45;;;4.94;80.14
80620;BME280;69979;53.682;-2.690;2023-12-28T05:08:32;99224.51;;;4.88;79.64
80620;BME280;69979;53.682;-2.690;2023-12-28T05:10:58;99227.51;;;5.06;77.91
80620;BME280;69979;53.682;-2.690;2023-12-28T05:13:23;99238.76;;;5.10;77.25
80620;BME280;69979;53.682;-2.690;2023-12-28T05:15:49;99247.99;;;4.81;77.26
80620;BME280;69979;53.682;-2.690;2023-12-28T05:18:14;99245.88;;;4.49;76.86
80620;BME280;69979;53.682;-2.690;2023-12-28T05:20:40;99255.23;;;4.83;77.18
80620;BME280;69979;53.682;-2.690;2023-12-28T05:23:05;99255.10;;;4.97;77.09
80620;BME280;69979;53.682;-2.690;2023-12-28T05:25:31;99254.04;;;4.84;78.26
80620;BME280;69979;53.682;-2.690;2023-12-28T05:27:57;99251.97;;;4.95;76.23
80620;BME280;69979;53.682;-2.690;2023-12-28T05:30:22;99248.14;;;5.68;73.92
80620;BME280;69979;53.682;-2.690;2023-12-28T05:32:48;99256.16;;;5.11;75.56
80620;BME280;69979;53.682;-2.690;2023-12-28T05:35:14;99261.73;;;5.60;74.34
80620;BME280;69979;53.682;-2.690;2023-12-28T05:37:39;99264.53;;;5.10;74.94
80620;BME280;69979;53.682;-2.690;2023-12-28T05:40:05;99260.90;;;5.64;73.69
80620;BME280;69979;53.682;-2.690;2023-12-28T05:42:30;99272.22;;;5.41;73.79
80620;BME280;69979;53.682;-2.690;2023-12-28T05:44:55;99265.49;;;5.20;74.92
80620;BME280;69979;53.682;-2.690;2023-12-28T05:47:21;99265.30;;;5.16;74.94
80620;BME280;69979;53.682;-2.690;2023-12-28T05:49:47;99277.26;;;5.26;74.67
80620;BME280;69979;53.682;-2.690;2023-12-28T05:52:12;99283.90;;;4.81;75.94
80620;BME280;69979;53.682;-2.690;2023-12-28T05:54:38;99273.88;;;5.19;74.61
80620;BME280;69979;53.682;-2.690;2023-12-28T05:57:03;99283.09;;;5.50;74.44
80620;BME280;69979;53.682;-2.690;2023-12-28T05:59:29;99284.85;;;5.89;73.12
80620;BME280;69979;53.682;-2.690;2023-12-28T06:01:55;99295.32;;;4.91;75.19
80620;BME280;69979;53.682;-2.690;2023-12-28T06:04:20;99290.39;;;4.96;75.74
80620;BME280;69979;53.682;-2.690;2023-12-28T06:06:46;99294.06;;;4.59;76.36
80620;BME280;69979;53.682;-2.690;2023-12-28T06:09:11;99291.22;;;5.12;75.22
80620;BME280;69979;53.682;-2.690;2023-12-28T06:11:37;99293.49;;;5.25;74.87
80620;BME280;69979;53.682;-2.690;2023-12-28T06:14:03;99294.34;;;5.29;74.64
80620;BME280;69979;53.682;-2.690;2023-12-28T06:16:28;99295.46;;;5.48;73.57
80620;BME280;69979;53.682;-2.690;2023-12-28T06:18:54;99301.72;;;5.17;74.51
80620;BME280;69979;53.682;-2.690;2023-12-28T06:21:20;99305.47;;;5.83;73.42
80620;BME280;69979;53.682;-2.690;2023-12-28T06:23:45;99304.21;;;6.18;71.74
80620;BME280;69979;53.682;-2.690;2023-12-28T06:26:11;99315.19;;;5.51;73.95
80620;BME280;69979;53.682;-2.690;2023-12-28T06:28:37;99324.32;;;5.70;73.99
80620;BME280;69979;53.682;-2.690;2023-12-28T06:31:03;99323.64;;;4.97;76.90
80620;BME280;69979;53.682;-2.690;2023-12-28T06:33:28;99333.32;;;5.46;75.44
80620;BME280;69979;53.682;-2.690;2023-12-28T06:35:54;99334.74;;;5.63;74.85
80620;BME280;69979;53.682;-2.690;2023-12-28T06:38:19;99328.92;;;5.73;75.87
80620;BME280;69979;53.682;-2.690;2023-12-28T06:40:45;99318.84;;;5.61;76.18
80620;BME280;69979;53.682;-2.690;2023-12-28T06:43:11;99322.84;;;6.07;73.99
80620;BME280;69979;53.682;-2.690;2023-12-28T06:45:36;99323.18;;;6.24;73.16
80620;BME280;69979;53.682;-2.690;2023-12-28T06:48:02;99321.22;;;5.57;74.28
80620;BME280;69979;53.682;-2.690;2023-12-28T06:50:27;99317.87;;;6.37;73.05
80620;BME280;69979;53.682;-2.690;2023-12-28T06:52:53;99310.88;;;6.16;71.80
80620;BME280;69979;53.682;-2.690;2023-12-28T06:55:18;99310.48;;;6.24;71.99
80620;BME280;69979;53.682;-2.690;2023-12-28T06:57:44;99312.97;;;6.64;70.56
80620;BME280;69979;53.682;-2.690;2023-12-28T07:00:11;99315.39;;;6.27;71.86
80620;BME280;69979;53.682;-2.690;2023-12-28T07:02:35;99313.46;;;6.21;70.81
80620;BME280;69979;53.682;-2.690;2023-12-28T07:05:01;99304.19;;;6.65;69.79
80620;BME280;69979;53.682;-2.690;2023-12-28T07:07:27;99301.44;;;6.75;69.33
80620;BME280;69979;53.682;-2.690;2023-12-28T07:09:52;99295.58;;;7.62;66.82
80620;BME280;69979;53.682;-2.690;2023-12-28T07:12:18;99314.30;;;7.02;67.46
80620;BME280;69979;53.682;-2.690;2023-12-28T07:14:43;99316.25;;;6.34;69.15
80620;BME280;69979;53.682;-2.690;2023-12-28T07:17:09;99315.07;;;7.12;68.35
80620;BME280;69979;53.682;-2.690;2023-12-28T07:19:35;99307.47;;;7.02;67.61
80620;BME280;69979;53.682;-2.690;2023-12-28T07:22:00;99301.28;;;7.77;65.76
80620;BME280;69979;53.682;-2.690;2023-12-28T07:24:26;99287.31;;;7.91;64.53
80620;BME280;69979;53.682;-2.690;2023-12-28T07:26:52;99278.73;;;7.35;64.88
80620;BME280;69979;53.682;-2.690;2023-12-28T07:29:17;99298.09;;;7.65;64.39
80620;BME280;69979;53.682;-2.690;2023-12-28T07:31:43;99298.99;;;7.71;64.94
80620;BME280;69979;53.682;-2.690;2023-12-28T07:34:08;99303.22;;;7.16;65.33
80620;BME280;69979;53.682;-2.690;2023-12-28T07:36:34;99305.17;;;7.37;66.40
80620;BME280;69979;53.682;-2.690;2023-12-28T07:39:00;99308.88;;;6.40;67.54
80620;BME280;69979;53.682;-2.690;2023-12-28T07:41:25;99311.36;;;6.46;67.02
80620;BME280;69979;53.682;-2.690;2023-12-28T07:43:51;99303.45;;;6.86;66.73
80620;BME280;69979;53.682;-2.690;2023-12-28T07:46:17;99303.74;;;7.08;65.07
80620;BME280;69979;53.682;-2.690;2023-12-28T07:48:42;99304.84;;;6.94;65.13
80620;BME280;69979;53.682;-2.690;2023-12-28T07:51:07;99313.78;;;7.51;63.41
80620;BME280;69979;53.682;-2.690;2023-12-28T07:53:33;99317.65;;;7.08;63.64
80620;BME280;69979;53.682;-2.690;2023-12-28T07:55:59;99313.80;;;6.83;65.07
80620;BME280;69979;53.682;-2.690;2023-12-28T07:58:24;99314.86;;;6.49;65.12
80620;BME280;69979;53.682;-2.690;2023-12-28T08:00:50;99315.69;;;7.41;63.62
80620;BME280;69979;53.682;-2.690;2023-12-28T08:03:16;99318.78;;;7.16;63.60
80620;BME280;69979;53.682;-2.690;2023-12-28T08:05:41;99315.30;;;7.85;62.54
80620;BME280;69979;53.682;-2.690;2023-12-28T08:08:07;99310.01;;;6.48;64.67
80620;BME280;69979;53.682;-2.690;2023-12-28T08:10:33;99309.78;;;6.33;66.89
80620;BME280;69979;53.682;-2.690;2023-12-28T08:12:58;99301.30;;;6.33;66.68
80620;BME280;69979;53.682;-2.690;2023-12-28T08:15:24;99305.13;;;7.69;63.53
80620;BME280;69979;53.682;-2.690;2023-12-28T08:17:49;99309.77;;;7.71;63.14
80620;BME280;69979;53.682;-2.690;2023-12-28T08:20:15;99303.16;;;6.46;66.91
80620;BME280;69979;53.682;-2.690;2023-12-28T08:22:40;99309.06;;;6.71;66.41
80620;BME280;69979;53.682;-2.690;2023-12-28T08:25:06;99318.13;;;6.99;66.37
80620;BME280;69979;53.682;-2.690;2023-12-28T08:27:32;99322.11;;;7.80;64.33
80620;BME280;69979;53.682;-2.690;2023-12-28T08:29:57;99317.20;;;7.27;63.83
80620;BME280;69979;53.682;-2.690;2023-12-28T08:32:23;99322.50;;;6.57;66.12
80620;BME280;69979;53.682;-2.690;2023-12-28T08:34:49;99333.64;;;7.02;65.30
80620;BME280;69979;53.682;-2.690;2023-12-28T08:37:14;99341.45;;;7.03;65.78
80620;BME280;69979;53.682;-2.690;2023-12-28T08:39:40;99340.60;;;7.26;65.58
80620;BME280;69979;53.682;-2.690;2023-12-28T08:42:06;99334.19;;;6.90;66.83
80620;BME280;69979;53.682;-2.690;2023-12-28T08:44:31;99335.07;;;7.23;66.25
80620;BME280;69979;53.682;-2.690;2023-12-28T08:46:57;99342.90;;;6.84;68.35
80620;BME280;69979;53.682;-2.690;2023-12-28T08:49:22;99342.02;;;6.65;69.06
80620;BME280;69979;53.682;-2.690;2023-12-28T08:51:48;99337.01;;;7.14;68.38
80620;BME280;69979;53.682;-2.690;2023-12-28T08:54:13;99339.69;;;7.01;69.27
80620;BME280;69979;53.682;-2.690;2023-12-28T08:56:39;99340.74;;;7.72;66.64
80620;BME280;69979;53.682;-2.690;2023-12-28T08:59:04;99339.12;;;6.71;69.03
80620;BME280;69979;53.682;-2.690;2023-12-28T09:01:30;99337.15;;;6.78;69.13
80620;BME280;69979;53.682;-2.690;2023-12-28T09:03:56;99332.33;;;7.09;69.47
80620;BME280;69979;53.682;-2.690;2023-12-28T09:06:21;99330.75;;;6.71;69.81
80620;BME280;69979;53.682;-2.690;2023-12-28T09:08:50;99327.02;;;6.91;68.67
80620;BME280;69979;53.682;-2.690;2023-12-28T09:11:12;99333.73;;;7.02;69.43
80620;BME280;69979;53.682;-2.690;2023-12-28T09:13:38;99340.70;;;7.60;67.27
80620;BME280;69979;53.682;-2.690;2023-12-28T09:16:04;99337.33;;;6.90;69.15
80620;BME280;69979;53.682;-2.690;2023-12-28T09:18:29;99323.08;;;7.36;67.99
80620;BME280;69979;53.682;-2.690;2023-12-28T09:20:54;99313.91;;;7.43;67.15
80620;BME280;69979;53.682;-2.690;2023-12-28T09:23:20;99312.53;;;7.42;67.33
80620;BME280;69979;53.682;-2.690;2023-12-28T09:25:48;99317.04;;;8.37;64.48
80620;BME280;69979;53.682;-2.690;2023-12-28T09:28:13;99309.95;;;8.62;63.76
80620;BME280;69979;53.682;-2.690;2023-12-28T09:30:38;99303.26;;;7.84;65.78
80620;BME280;69979;53.682;-2.690;2023-12-28T09:33:04;99311.04;;;8.55;62.79
80620;BME280;69979;53.682;-2.690;2023-12-28T09:35:31;99311.21;;;9.04;62.04
80620;BME280;69979;53.682;-2.690;2023-12-28T09:37:55;99311.33;;;8.44;62.64
80620;BME280;69979;53.682;-2.690;2023-12-28T09:40:21;99303.68;;;8.01;63.59
80620;BME280;69979;53.682;-2.690;2023-12-28T09:42:53;99305.79;;;7.57;65.38
80620;BME280;69979;53.682;-2.690;2023-12-28T09:45:12;99310.80;;;8.19;63.63
80620;BME280;69979;53.682;-2.690;2023-12-28T09:47:38;99312.08;;;6.58;66.91
80620;BME280;69979;53.682;-2.690;2023-12-28T09:50:04;99299.31;;;7.19;67.15
80620;BME280;69979;53.682;-2.690;2023-12-28T09:52:28;99301.57;;;7.16;67.60
80620;BME280;69979;53.682;-2.690;2023-12-28T09:54:54;99295.97;;;7.27;67.40
80620;BME280;69979;53.682;-2.690;2023-12-28T09:57:20;99306.99;;;7.19;67.43
80620;BME280;69979;53.682;-2.690;2023-12-28T09:59:45;99297.11;;;6.65;69.18
80620;BME280;69979;53.682;-2.690;2023-12-28T10:02:11;99305.92;;;7.62;67.84
80620;BME280;69979;53.682;-2.690;2023-12-28T10:04:37;99288.80;;;6.51;70.55
80620;BME280;69979;53.682;-2.690;2023-12-28T10:07:02;99288.12;;;6.39;71.66
80620;BME280;69979;53.682;-2.690;2023-12-28T10:09:28;99281.97;;;6.32;72.50
80620;BME280;69979;53.682;-2.690;2023-12-28T10:11:54;99289.76;;;6.76;71.68
80620;BME280;69979;53.682;-2.690;2023-12-28T10:14:20;99289.98;;;6.39;73.84
80620;BME280;69979;53.682;-2.690;2023-12-28T10:16:45;99287.63;;;6.60;74.49
80620;BME280;69979;53.682;-2.690;2023-12-28T10:19:10;99291.37;;;6.49;75.12
80620;BME280;69979;53.682;-2.690;2023-12-28T10:21:39;99294.48;;;6.62;75.06
80620;BME280;69979;53.682;-2.690;2023-12-28T10:24:02;99289.15;;;7.09;73.77
80620;BME280;69979;53.682;-2.690;2023-12-28T10:26:27;99290.43;;;6.61;75.14
80620;BME280;69979;53.682;-2.690;2023-12-28T10:28:57;99288.50;;;7.12;74.10
80620;BME280;69979;53.682;-2.690;2023-12-28T10:31:18;99283.34;;;6.97;73.85
80620;BME280;69979;53.682;-2.690;2023-12-28T10:33:44;99280.25;;;6.30;75.71
80620;BME280;69979;53.682;-2.690;2023-12-28T10:36:09;99270.13;;;6.39;76.91
80620;BME280;69979;53.682;-2.690;2023-12-28T10:38:36;99260.30;;;6.98;76.49
80620;BME280;69979;53.682;-2.690;2023-12-28T10:41:00;99258.57;;;7.07;74.66
80620;BME280;69979;53.682;-2.690;2023-12-28T10:43:26;99254.65;;;7.30;72.65
80620;BME280;69979;53.682;-2.690;2023-12-28T10:45:51;99242.75;;;7.47;73.66
80620;BME280;69979;53.682;-2.690;2023-12-28T10:48:22;99235.18;;;7.16;73.42
80620;BME280;69979;53.682;-2.690;2023-12-28T10:50:44;99220.32;;;7.45;73.37
80620;BME280;69979;53.682;-2.690;2023-12-28T10:53:20;99216.90;;;7.53;72.40
80620;BME280;69979;53.682;-2.690;2023-12-28T10:55:40;99217.96;;;7.05;74.63
80620;BME280;69979;53.682;-2.690;2023-12-28T10:58:05;99208.24;;;6.80;74.66
80620;BME280;69979;53.682;-2.690;2023-12-28T11:00:26;99191.53;;;6.83;75.57
80620;BME280;69979;53.682;-2.690;2023-12-28T11:02:55;99185.11;;;6.96;75.61
80620;BME280;69979;53.682;-2.690;2023-12-28T11:05:15;99186.03;;;6.45;76.98
80620;BME280;69979;53.682;-2.690;2023-12-28T11:07:41;99182.97;;;7.32;74.87
80620;BME280;69979;53.682;-2.690;2023-12-28T11:10:07;99189.29;;;7.87;73.49
80620;BME280;69979;53.682;-2.690;2023-12-28T11:12:32;99182.60;;;7.00;75.74
80620;BME280;69979;53.682;-2.690;2023-12-28T11:14:58;99179.20;;;6.80;76.62
80620;BME280;69979;53.682;-2.690;2023-12-28T11:17:23;99172.38;;;7.15;75.30
80620;BME280;69979;53.682;-2.690;2023-12-28T11:19:49;99175.79;;;6.94;75.10
80620;BME280;69979;53.682;-2.690;2023-12-28T11:22:15;99167.24;;;6.91;76.67
80620;BME280;69979;53.682;-2.690;2023-12-28T11:24:40;99152.50;;;6.10;78.04
80620;BME280;69979;53.682;-2.690;2023-12-28T11:27:05;99146.65;;;6.58;77.31
80620;BME280;69979;53.682;-2.690;2023-12-28T11:29:31;99153.07;;;6.54;76.92
80620;BME280;69979;53.682;-2.690;2023-12-28T11:31:58;99148.08;;;5.78;78.72
80620;BME280;69979;53.682;-2.690;2023-12-28T11:34:25;99149.42;;;6.06;78.59
80620;BME280;69979;53.682;-2.690;2023-12-28T11:36:49;99136.96;;;5.44;80.61
80620;BME280;69979;53.682;-2.690;2023-12-28T11:39:19;99144.49;;;5.61;80.60
80620;BME280;69979;53.682;-2.690;2023-12-28T11:41:39;99138.39;;;5.46;81.69
80620;BME280;69979;53.682;-2.690;2023-12-28T11:44:05;99146.94;;;6.09;79.71
80620;BME280;69979;53.682;-2.690;2023-12-28T11:46:30;99142.38;;;5.89;80.94
80620;BME280;69979;53.682;-2.690;2023-12-28T11:49:03;99154.47;;;5.98;79.28
80620;BME280;69979;53.682;-2.690;2023-12-28T11:51:21;99141.60;;;5.86;79.31
80620;BME280;69979;53.682;-2.690;2023-12-28T11:53:47;99143.00;;;5.87;78.80
80620;BME280;69979;53.682;-2.690;2023-12-28T11:56:15;99148.20;;;5.68;78.98
80620;BME280;69979;53.682;-2.690;2023-12-28T11:58:38;99137.84;;;6.02;77.42
80620;BME280;69979;53.682;-2.690;2023-12-28T12:01:04;99143.46;;;5.56;77.87
80620;BME280;69979;53.682;-2.690;2023-12-28T12:03:29;99121.09;;;6.10;77.21
80620;BME280;69979;53.682;-2.690;2023-12-28T12:05:55;99120.90;;;5.86;77.12
80620;BME280;69979;53.682;-2.690;2023-12-28T12:08:21;99111.63;;;5.90;76.53
80620;BME280;69979;53.682;-2.690;2023-12-28T12:10:46;99126.45;;;5.80;76.80
80620;BME280;69979;53.682;-2.690;2023-12-28T12:13:14;99131.24;;;6.06;76.71
80620;BME280;69979;53.682;-2.690;2023-12-28T12:15:37;99108.83;;;5.86;76.10
80620;BME280;69979;53.682;-2.690;2023-12-28T12:18:04;99117.75;;;6.03;74.95
80620;BME280;69979;53.682;-2.690;2023-12-28T12:20:29;99108.97;;;6.06;75.79
80620;BME280;69979;53.682;-2.690;2023-12-28T12:22:58;99095.55;;;6.57;74.32
80620;BME280;69979;53.682;-2.690;2023-12-28T12:25:20;99092.78;;;6.01;77.03
80620;BME280;69979;53.682;-2.690;2023-12-28T12:27:46;99091.46;;;5.51;76.75
80620;BME280;69979;53.682;-2.690;2023-12-28T12:30:12;99104.24;;;5.93;77.23
80620;BME280;69979;53.682;-2.690;2023-12-28T12:32:38;99091.99;;;5.69;78.51
80620;BME280;69979;53.682;-2.690;2023-12-28T12:35:04;99079.19;;;6.13;77.29
80620;BME280;69979;53.682;-2.690;2023-12-28T12:37:29;99093.84;;;5.74;78.46
80620;BME280;69979;53.682;-2.690;2023-12-28T12:39:54;99095.93;;;5.49;79.22
80620;BME280;69979;53.682;-2.690;2023-12-28T12:42:20;99064.27;;;5.88;78.32
80620;BME280;69979;53.682;-2.690;2023-12-28T12:44:45;99088.28;;;6.01;77.84
80620;BME280;69979;53.682;-2.690;2023-12-28T12:47:13;99095.19;;;5.78;79.08
80620;BME280;69979;53.682;-2.690;2023-12-28T12:49:37;99110.82;;;5.53;81.44